TLH weather

Tallahassee Regional Airport
Tallahassee, Florida, United States

Public forecast

Using degrees Fahrenheit for public forecast. Weather courtesy of forecast.io.

METAR (pilot weather report)

Retrieved 2019/09/23 02:53 UTC (49 minutes ago):

KTLH 230253Z 00000KT 10SM FEW060 23/17 A3010 RMK AO2 SLP193 T02280172 51008 $

TAF (pilot weather forecast)

Forecast is more than 12 hours old.

Retrieved 2019/09/22 00:36 UTC (1 day ago):

TAF KTLH 222333Z 2300/2324 10005KT P6SM FEW050 FM231500 35007KT P6SM FEW050